sensor_id;sensor_type;location;lat;lon;timestamp;P1;durP1;ratioP1;P2;durP2;ratioP2
22907;SDS011;11620;50.050;8.690;2023-03-01T00:00:20;0.90;;;0.90;;
22907;SDS011;11620;50.050;8.690;2023-03-01T00:03:06;0.80;;;0.80;;
22907;SDS011;11620;50.050;8.690;2023-03-01T00:05:53;0.90;;;0.90;;
22907;SDS011;11620;50.050;8.690;2023-03-01T00:08:39;0.87;;;0.87;;
22907;SDS011;11620;50.050;8.690;2023-03-01T00:11:27;0.87;;;0.87;;
22907;SDS011;11620;50.050;8.690;2023-03-01T00:14:15;0.90;;;0.90;;
22907;SDS011;11620;50.050;8.690;2023-03-01T00:17:04;0.90;;;0.90;;
22907;SDS011;11620;50.050;8.690;2023-03-01T00:19:50;0.90;;;0.90;;
22907;SDS011;11620;50.050;8.690;2023-03-01T00:22:37;0.90;;;0.90;;
22907;SDS011;11620;50.050;8.690;2023-03-01T00:25:23;0.77;;;0.77;;
22907;SDS011;11620;50.050;8.690;2023-03-01T00:28:09;0.80;;;0.80;;
22907;SDS011;11620;50.050;8.690;2023-03-01T00:30:56;0.90;;;0.90;;
22907;SDS011;11620;50.050;8.690;2023-03-01T00:33:47;0.80;;;0.80;;
22907;SDS011;11620;50.050;8.690;2023-03-01T00:36:35;1.00;;;1.00;;
22907;SDS011;11620;50.050;8.690;2023-03-01T00:39:22;0.80;;;0.80;;
22907;SDS011;11620;50.050;8.690;2023-03-01T00:42:08;0.80;;;0.80;;
22907;SDS011;11620;50.050;8.690;2023-03-01T00:44:55;0.70;;;0.70;;
22907;SDS011;11620;50.050;8.690;2023-03-01T00:47:41;0.80;;;0.80;;
22907;SDS011;11620;50.050;8.690;2023-03-01T00:50:28;0.80;;;0.80;;
22907;SDS011;11620;50.050;8.690;2023-03-01T00:53:14;0.80;;;0.80;;
22907;SDS011;11620;50.050;8.690;2023-03-01T00:56:01;0.80;;;0.80;;
22907;SDS011;11620;50.050;8.690;2023-03-01T00:58:49;0.80;;;0.80;;
22907;SDS011;11620;50.050;8.690;2023-03-01T01:01:35;0.80;;;0.80;;
22907;SDS011;11620;50.050;8.690;2023-03-01T01:04:21;0.80;;;0.80;;
22907;SDS011;11620;50.050;8.690;2023-03-01T01:07:08;0.80;;;0.80;;
22907;SDS011;11620;50.050;8.690;2023-03-01T01:09:54;0.80;;;0.80;;
22907;SDS011;11620;50.050;8.690;2023-03-01T01:12:40;0.90;;;0.90;;
22907;SDS011;11620;50.050;8.690;2023-03-01T01:15:27;0.90;;;0.90;;
22907;SDS011;11620;50.050;8.690;2023-03-01T01:18:13;0.90;;;0.90;;
22907;SDS011;11620;50.050;8.690;2023-03-01T01:21:07;0.83;;;0.83;;
22907;SDS011;11620;50.050;8.690;2023-03-01T01:23:55;0.80;;;0.80;;
22907;SDS011;11620;50.050;8.690;2023-03-01T01:26:42;0.90;;;0.90;;
22907;SDS011;11620;50.050;8.690;2023-03-01T01:29:29;1.00;;;1.00;;
22907;SDS011;11620;50.050;8.690;2023-03-01T01:32:15;0.80;;;0.80;;
22907;SDS011;11620;50.050;8.690;2023-03-01T01:35:01;0.80;;;0.80;;
22907;SDS011;11620;50.050;8.690;2023-03-01T01:37:48;0.70;;;0.70;;
22907;SDS011;11620;50.050;8.690;2023-03-01T01:40:34;0.80;;;0.80;;
22907;SDS011;11620;50.050;8.690;2023-03-01T01:43:22;0.80;;;0.80;;
22907;SDS011;11620;50.050;8.690;2023-03-01T01:52:21;0.90;;;0.90;;
22907;SDS011;11620;50.050;8.690;2023-03-01T01:55:12;0.90;;;0.90;;
22907;SDS011;11620;50.050;8.690;2023-03-01T01:58:04;0.80;;;0.80;;
22907;SDS011;11620;50.050;8.690;2023-03-01T02:00:53;0.90;;;0.90;;
22907;SDS011;11620;50.050;8.690;2023-03-01T02:03:40;0.97;;;0.97;;
22907;SDS011;11620;50.050;8.690;2023-03-01T02:06:37;0.80;;;0.80;;
22907;SDS011;11620;50.050;8.690;2023-03-01T02:09:30;0.90;;;0.90;;
22907;SDS011;11620;50.050;8.690;2023-03-01T02:12:18;0.80;;;0.80;;
22907;SDS011;11620;50.050;8.690;2023-03-01T02:15:08;0.80;;;0.80;;
22907;SDS011;11620;50.050;8.690;2023-03-01T02:17:55;0.93;;;0.93;;
22907;SDS011;11620;50.050;8.690;2023-03-01T02:23:48;0.80;;;0.80;;
22907;SDS011;11620;50.050;8.690;2023-03-01T02:29:30;0.80;;;0.80;;
22907;SDS011;11620;50.050;8.690;2023-03-01T02:32:17;0.77;;;0.77;;
22907;SDS011;11620;50.050;8.690;2023-03-01T02:35:12;0.80;;;0.80;;
22907;SDS011;11620;50.050;8.690;2023-03-01T02:38:00;0.83;;;0.83;;
22907;SDS011;11620;50.050;8.690;2023-03-01T02:40:50;0.80;;;0.80;;
22907;SDS011;11620;50.050;8.690;2023-03-01T02:43:37;0.90;;;0.90;;
22907;SDS011;11620;50.050;8.690;2023-03-01T02:46:24;0.73;;;0.73;;
22907;SDS011;11620;50.050;8.690;2023-03-01T02:49:23;0.83;;;0.83;;
22907;SDS011;11620;50.050;8.690;2023-03-01T02:55:22;0.90;;;0.90;;
22907;SDS011;11620;50.050;8.690;2023-03-01T02:58:08;0.80;;;0.80;;
22907;SDS011;11620;50.050;8.690;2023-03-01T03:00:55;0.80;;;0.80;;
22907;SDS011;11620;50.050;8.690;2023-03-01T03:03:42;0.90;;;0.90;;
22907;SDS011;11620;50.050;8.690;2023-03-01T03:06:29;0.90;;;0.90;;
22907;SDS011;11620;50.050;8.690;2023-03-01T03:09:15;0.90;;;0.90;;
22907;SDS011;11620;50.050;8.690;2023-03-01T03:12:03;0.80;;;0.80;;
22907;SDS011;11620;50.050;8.690;2023-03-01T03:14:49;0.90;;;0.90;;
22907;SDS011;11620;50.050;8.690;2023-03-01T03:17:36;0.80;;;0.80;;
22907;SDS011;11620;50.050;8.690;2023-03-01T03:20:25;0.80;;;0.80;;
22907;SDS011;11620;50.050;8.690;2023-03-01T03:23:13;0.70;;;0.70;;
22907;SDS011;11620;50.050;8.690;2023-03-01T03:25:59;0.80;;;0.80;;
22907;SDS011;11620;50.050;8.690;2023-03-01T03:28:46;0.80;;;0.80;;
22907;SDS011;11620;50.050;8.690;2023-03-01T03:31:32;0.73;;;0.73;;
22907;SDS011;11620;50.050;8.690;2023-03-01T03:34:19;0.80;;;0.80;;
22907;SDS011;11620;50.050;8.690;2023-03-01T03:37:06;0.90;;;0.90;;
22907;SDS011;11620;50.050;8.690;2023-03-01T03:40:12;0.70;;;0.70;;
22907;SDS011;11620;50.050;8.690;2023-03-01T03:43:01;0.80;;;0.80;;
22907;SDS011;11620;50.050;8.690;2023-03-01T03:45:53;0.80;;;0.80;;
22907;SDS011;11620;50.050;8.690;2023-03-01T03:48:40;0.90;;;0.90;;
22907;SDS011;11620;50.050;8.690;2023-03-01T03:51:31;0.70;;;0.70;;
22907;SDS011;11620;50.050;8.690;2023-03-01T03:54:17;0.77;;;0.77;;
22907;SDS011;11620;50.050;8.690;2023-03-01T03:57:03;0.70;;;0.70;;
22907;SDS011;11620;50.050;8.690;2023-03-01T03:59:50;0.90;;;0.90;;
22907;SDS011;11620;50.050;8.690;2023-03-01T04:02:36;0.80;;;0.80;;
22907;SDS011;11620;50.050;8.690;2023-03-01T04:05:23;0.90;;;0.90;;
22907;SDS011;11620;50.050;8.690;2023-03-01T04:08:10;0.80;;;0.80;;
22907;SDS011;11620;50.050;8.690;2023-03-01T04:10:58;0.80;;;0.80;;
22907;SDS011;11620;50.050;8.690;2023-03-01T04:14:06;0.80;;;0.80;;
22907;SDS011;11620;50.050;8.690;2023-03-01T04:16:52;0.90;;;0.90;;
22907;SDS011;11620;50.050;8.690;2023-03-01T04:19:39;0.83;;;0.83;;
22907;SDS011;11620;50.050;8.690;2023-03-01T04:22:25;0.80;;;0.80;;
22907;SDS011;11620;50.050;8.690;2023-03-01T04:25:15;0.90;;;0.90;;
22907;SDS011;11620;50.050;8.690;2023-03-01T04:28:01;0.90;;;0.90;;
22907;SDS011;11620;50.050;8.690;2023-03-01T04:30:47;0.90;;;0.90;;
22907;SDS011;11620;50.050;8.690;2023-03-01T04:33:34;0.90;;;0.90;;
22907;SDS011;11620;50.050;8.690;2023-03-01T04:36:24;0.90;;;0.90;;
22907;SDS011;11620;50.050;8.690;2023-03-01T04:39:11;0.90;;;0.90;;
22907;SDS011;11620;50.050;8.690;2023-03-01T04:41:58;0.70;;;0.70;;
22907;SDS011;11620;50.050;8.690;2023-03-01T04:44:44;0.80;;;0.80;;
22907;SDS011;11620;50.050;8.690;2023-03-01T04:47:31;0.83;;;0.83;;
22907;SDS011;11620;50.050;8.690;2023-03-01T04:50:17;0.80;;;0.80;;
22907;SDS011;11620;50.050;8.690;2023-03-01T04:53:09;0.90;;;0.90;;
22907;SDS011;11620;50.050;8.690;2023-03-01T04:55:55;0.83;;;0.83;;
22907;SDS011;11620;50.050;8.690;2023-03-01T04:58:42;1.00;;;1.00;;
22907;SDS011;11620;50.050;8.690;2023-03-01T05:01:28;0.90;;;0.90;;
22907;SDS011;11620;50.050;8.690;2023-03-01T05:04:15;0.80;;;0.80;;
22907;SDS011;11620;50.050;8.690;2023-03-01T05:07:01;0.80;;;0.80;;
22907;SDS011;11620;50.050;8.690;2023-03-01T05:09:48;0.80;;;0.80;;
22907;SDS011;11620;50.050;8.690;2023-03-01T05:12:34;0.90;;;0.90;;
22907;SDS011;11620;50.050;8.690;2023-03-01T05:15:23;0.90;;;0.90;;
22907;SDS011;11620;50.050;8.690;2023-03-01T05:18:13;0.90;;;0.90;;
22907;SDS011;11620;50.050;8.690;2023-03-01T05:21:07;0.83;;;0.83;;
22907;SDS011;11620;50.050;8.690;2023-03-01T05:23:55;0.80;;;0.80;;
22907;SDS011;11620;50.050;8.690;2023-03-01T05:26:42;0.80;;;0.80;;
22907;SDS011;11620;50.050;8.690;2023-03-01T05:29:28;0.80;;;0.80;;
22907;SDS011;11620;50.050;8.690;2023-03-01T05:32:16;0.80;;;0.80;;
22907;SDS011;11620;50.050;8.690;2023-03-01T05:35:03;1.00;;;1.00;;
22907;SDS011;11620;50.050;8.690;2023-03-01T05:37:50;0.90;;;0.90;;
22907;SDS011;11620;50.050;8.690;2023-03-01T05:40:36;0.90;;;0.90;;
22907;SDS011;11620;50.050;8.690;2023-03-01T05:43:23;0.90;;;0.90;;
22907;SDS011;11620;50.050;8.690;2023-03-01T05:46:09;0.90;;;0.90;;
22907;SDS011;11620;50.050;8.690;2023-03-01T05:48:57;1.00;;;1.00;;
22907;SDS011;11620;50.050;8.690;2023-03-01T05:51:47;0.87;;;0.87;;
22907;SDS011;11620;50.050;8.690;2023-03-01T05:54:34;0.80;;;0.80;;
22907;SDS011;11620;50.050;8.690;2023-03-01T05:57:21;0.80;;;0.80;;
22907;SDS011;11620;50.050;8.690;2023-03-01T06:00:07;0.80;;;0.80;;
22907;SDS011;11620;50.050;8.690;2023-03-01T06:02:56;0.90;;;0.90;;
22907;SDS011;11620;50.050;8.690;2023-03-01T06:05:43;0.90;;;0.90;;
22907;SDS011;11620;50.050;8.690;2023-03-01T06:08:29;0.83;;;0.83;;
22907;SDS011;11620;50.050;8.690;2023-03-01T06:11:16;0.73;;;0.73;;
22907;SDS011;11620;50.050;8.690;2023-03-01T06:14:02;0.80;;;0.80;;
22907;SDS011;11620;50.050;8.690;2023-03-01T06:16:49;0.80;;;0.80;;
22907;SDS011;11620;50.050;8.690;2023-03-01T06:19:36;0.80;;;0.80;;
22907;SDS011;11620;50.050;8.690;2023-03-01T06:22:22;0.90;;;0.90;;
22907;SDS011;11620;50.050;8.690;2023-03-01T06:25:09;0.87;;;0.87;;
22907;SDS011;11620;50.050;8.690;2023-03-01T06:27:56;0.80;;;0.80;;
22907;SDS011;11620;50.050;8.690;2023-03-01T06:30:42;0.90;;;0.90;;
22907;SDS011;11620;50.050;8.690;2023-03-01T06:33:29;0.90;;;0.90;;
22907;SDS011;11620;50.050;8.690;2023-03-01T06:36:15;0.90;;;0.90;;
22907;SDS011;11620;50.050;8.690;2023-03-01T06:39:04;0.93;;;0.93;;
22907;SDS011;11620;50.050;8.690;2023-03-01T06:41:50;0.90;;;0.90;;
22907;SDS011;11620;50.050;8.690;2023-03-01T06:44:37;0.90;;;0.90;;
22907;SDS011;11620;50.050;8.690;2023-03-01T06:47:24;1.00;;;1.00;;
22907;SDS011;11620;50.050;8.690;2023-03-01T06:50:10;0.87;;;0.87;;
22907;SDS011;11620;50.050;8.690;2023-03-01T06:52:57;0.90;;;0.90;;
22907;SDS011;11620;50.050;8.690;2023-03-01T06:55:44;0.80;;;0.80;;
22907;SDS011;11620;50.050;8.690;2023-03-01T06:58:30;0.90;;;0.90;;
22907;SDS011;11620;50.050;8.690;2023-03-01T07:01:16;1.00;;;1.00;;
22907;SDS011;11620;50.050;8.690;2023-03-01T07:04:03;1.00;;;1.00;;
22907;SDS011;11620;50.050;8.690;2023-03-01T07:06:49;0.90;;;0.90;;
22907;SDS011;11620;50.050;8.690;2023-03-01T07:09:40;0.90;;;0.90;;
22907;SDS011;11620;50.050;8.690;2023-03-01T07:12:27;0.90;;;0.90;;
22907;SDS011;11620;50.050;8.690;2023-03-01T07:15:13;0.90;;;0.90;;
22907;SDS011;11620;50.050;8.690;2023-03-01T07:18:00;0.70;;;0.70;;
22907;SDS011;11620;50.050;8.690;2023-03-01T07:20:47;0.90;;;0.90;;
22907;SDS011;11620;50.050;8.690;2023-03-01T07:23:33;0.80;;;0.80;;
22907;SDS011;11620;50.050;8.690;2023-03-01T07:26:20;0.90;;;0.90;;
22907;SDS011;11620;50.050;8.690;2023-03-01T07:29:07;0.80;;;0.80;;
22907;SDS011;11620;50.050;8.690;2023-03-01T07:31:55;0.83;;;0.83;;
22907;SDS011;11620;50.050;8.690;2023-03-01T07:34:41;0.80;;;0.80;;
22907;SDS011;11620;50.050;8.690;2023-03-01T07:37:27;0.90;;;0.90;;
22907;SDS011;11620;50.050;8.690;2023-03-01T07:40:14;0.90;;;0.90;;
22907;SDS011;11620;50.050;8.690;2023-03-01T07:43:00;0.83;;;0.83;;
22907;SDS011;11620;50.050;8.690;2023-03-01T07:45:47;0.90;;;0.90;;
22907;SDS011;11620;50.050;8.690;2023-03-01T07:48:33;0.87;;;0.87;;
22907;SDS011;11620;50.050;8.690;2023-03-01T07:51:19;0.90;;;0.90;;
22907;SDS011;11620;50.050;8.690;2023-03-01T07:54:06;1.00;;;1.00;;
22907;SDS011;11620;50.050;8.690;2023-03-01T07:56:52;1.00;;;1.00;;
22907;SDS011;11620;50.050;8.690;2023-03-01T07:59:40;0.80;;;0.80;;
22907;SDS011;11620;50.050;8.690;2023-03-01T08:02:26;0.90;;;0.90;;
22907;SDS011;11620;50.050;8.690;2023-03-01T08:05:13;0.90;;;0.90;;
22907;SDS011;11620;50.050;8.690;2023-03-01T08:07:59;0.90;;;0.90;;
22907;SDS011;11620;50.050;8.690;2023-03-01T08:10:45;0.90;;;0.90;;
22907;SDS011;11620;50.050;8.690;2023-03-01T08:13:32;0.97;;;0.97;;
22907;SDS011;11620;50.050;8.690;2023-03-01T08:16:18;0.90;;;0.90;;
22907;SDS011;11620;50.050;8.690;2023-03-01T08:19:08;0.80;;;0.80;;
22907;SDS011;11620;50.050;8.690;2023-03-01T08:21:55;0.90;;;0.90;;
22907;SDS011;11620;50.050;8.690;2023-03-01T08:24:43;1.00;;;1.00;;
22907;SDS011;11620;50.050;8.690;2023-03-01T08:27:30;0.80;;;0.80;;
22907;SDS011;11620;50.050;8.690;2023-03-01T08:30:16;0.90;;;0.90;;
22907;SDS011;11620;50.050;8.690;2023-03-01T08:33:03;0.90;;;0.90;;
22907;SDS011;11620;50.050;8.690;2023-03-01T08:35:49;0.80;;;0.80;;
22907;SDS011;11620;50.050;8.690;2023-03-01T08:38:35;1.00;;;1.00;;
22907;SDS011;11620;50.050;8.690;2023-03-01T08:41:22;0.80;;;0.80;;
22907;SDS011;11620;50.050;8.690;2023-03-01T08:44:09;0.90;;;0.90;;
22907;SDS011;11620;50.050;8.690;2023-03-01T08:46:57;0.97;;;0.97;;
22907;SDS011;11620;50.050;8.690;2023-03-01T08:49:43;0.90;;;0.90;;
22907;SDS011;11620;50.050;8.690;2023-03-01T08:52:30;0.93;;;0.93;;
22907;SDS011;11620;50.050;8.690;2023-03-01T08:55:18;0.90;;;0.90;;
22907;SDS011;11620;50.050;8.690;2023-03-01T08:58:04;0.90;;;0.90;;
22907;SDS011;11620;50.050;8.690;2023-03-01T09:00:51;0.90;;;0.90;;
22907;SDS011;11620;50.050;8.690;2023-03-01T09:03:37;1.00;;;1.00;;
22907;SDS011;11620;50.050;8.690;2023-03-01T09:06:24;0.80;;;0.80;;
22907;SDS011;11620;50.050;8.690;2023-03-01T09:09:15;0.90;;;0.90;;
22907;SDS011;11620;50.050;8.690;2023-03-01T09:12:03;0.90;;;0.90;;
22907;SDS011;11620;50.050;8.690;2023-03-01T09:14:50;0.90;;;0.90;;
22907;SDS011;11620;50.050;8.690;2023-03-01T09:17:36;0.80;;;0.80;;
22907;SDS011;11620;50.050;8.690;2023-03-01T09:20:22;0.90;;;0.90;;
22907;SDS011;11620;50.050;8.690;2023-03-01T09:23:09;1.00;;;1.00;;
22907;SDS011;11620;50.050;8.690;2023-03-01T09:25:55;0.80;;;0.80;;
22907;SDS011;11620;50.050;8.690;2023-03-01T09:28:41;0.93;;;0.93;;
22907;SDS011;11620;50.050;8.690;2023-03-01T09:31:29;0.80;;;0.80;;
22907;SDS011;11620;50.050;8.690;2023-03-01T09:34:16;1.00;;;1.00;;
22907;SDS011;11620;50.050;8.690;2023-03-01T09:37:08;0.80;;;0.80;;
22907;SDS011;11620;50.050;8.690;2023-03-01T09:39:55;0.90;;;0.90;;
22907;SDS011;11620;50.050;8.690;2023-03-01T09:45:45;0.80;;;0.80;;
22907;SDS011;11620;50.050;8.690;2023-03-01T09:48:36;0.90;;;0.90;;
22907;SDS011;11620;50.050;8.690;2023-03-01T09:51:29;0.80;;;0.80;;
22907;SDS011;11620;50.050;8.690;2023-03-01T09:54:18;0.80;;;0.80;;
22907;SDS011;11620;50.050;8.690;2023-03-01T09:57:06;0.80;;;0.80;;
22907;SDS011;11620;50.050;8.690;2023-03-01T10:02:48;0.93;;;0.93;;
22907;SDS011;11620;50.050;8.690;2023-03-01T10:05:43;0.90;;;0.90;;
22907;SDS011;11620;50.050;8.690;2023-03-01T10:08:59;0.80;;;0.80;;
22907;SDS011;11620;50.050;8.690;2023-03-01T10:11:52;0.90;;;0.90;;
22907;SDS011;11620;50.050;8.690;2023-03-01T10:14:48;0.70;;;0.70;;
22907;SDS011;11620;50.050;8.690;2023-03-01T10:17:46;0.80;;;0.80;;
22907;SDS011;11620;50.050;8.690;2023-03-01T10:23:45;0.80;;;0.80;;
22907;SDS011;11620;50.050;8.690;2023-03-01T10:26:47;0.53;;;0.53;;
22907;SDS011;11620;50.050;8.690;2023-03-01T10:32:46;0.80;;;0.80;;
22907;SDS011;11620;50.050;8.690;2023-03-01T10:35:38;0.80;;;0.80;;
22907;SDS011;11620;50.050;8.690;2023-03-01T10:38:26;0.70;;;0.70;;
22907;SDS011;11620;50.050;8.690;2023-03-01T10:41:16;0.80;;;0.80;;
22907;SDS011;11620;50.050;8.690;2023-03-01T10:44:03;0.73;;;0.73;;
22907;SDS011;11620;50.050;8.690;2023-03-01T10:46:58;0.90;;;0.90;;
22907;SDS011;11620;50.050;8.690;2023-03-01T10:50:03;0.80;;;0.80;;
22907;SDS011;11620;50.050;8.690;2023-03-01T10:53:01;0.80;;;0.80;;
22907;SDS011;11620;50.050;8.690;2023-03-01T10:55:49;0.70;;;0.70;;
22907;SDS011;11620;50.050;8.690;2023-03-01T10:58:57;0.80;;;0.80;;
22907;SDS011;11620;50.050;8.690;2023-03-01T11:01:45;0.70;;;0.70;;
22907;SDS011;11620;50.050;8.690;2023-03-01T11:04:31;0.60;;;0.60;;
22907;SDS011;11620;50.050;8.690;2023-03-01T11:07:17;0.70;;;0.70;;
22907;SDS011;11620;50.050;8.690;2023-03-01T11:10:10;0.80;;;0.80;;
22907;SDS011;11620;50.050;8.690;2023-03-01T11:13:08;0.70;;;0.70;;
22907;SDS011;11620;50.050;8.690;2023-03-01T11:16:07;0.70;;;0.70;;
22907;SDS011;11620;50.050;8.690;2023-03-01T11:24:51;0.60;;;0.60;;
22907;SDS011;11620;50.050;8.690;2023-03-01T11:27:41;0.70;;;0.70;;
22907;SDS011;11620;50.050;8.690;2023-03-01T11:30:31;0.70;;;0.70;;
22907;SDS011;11620;50.050;8.690;2023-03-01T11:36:35;0.80;;;0.80;;
22907;SDS011;11620;50.050;8.690;2023-03-01T11:39:42;0.70;;;0.70;;
22907;SDS011;11620;50.050;8.690;2023-03-01T11:52:29;0.73;;;0.73;;
22907;SDS011;11620;50.050;8.690;2023-03-01T11:58:27;0.60;;;0.60;;
22907;SDS011;11620;50.050;8.690;2023-03-01T12:01:37;0.50;;;0.50;;
22907;SDS011;11620;50.050;8.690;2023-03-01T12:10:31;0.70;;;0.70;;
22907;SDS011;11620;50.050;8.690;2023-03-01T12:22:44;0.70;;;0.70;;
22907;SDS011;11620;50.050;8.690;2023-03-01T12:29:09;0.60;;;0.60;;
22907;SDS011;11620;50.050;8.690;2023-03-01T12:32:13;0.60;;;0.60;;
22907;SDS011;11620;50.050;8.690;2023-03-01T12:38:22;0.60;;;0.60;;
22907;SDS011;11620;50.050;8.690;2023-03-01T12:53:03;0.60;;;0.60;;
22907;SDS011;11620;50.050;8.690;2023-03-01T12:55:50;0.70;;;0.70;;
22907;SDS011;11620;50.050;8.690;2023-03-01T13:16:22;0.60;;;0.60;;
22907;SDS011;11620;50.050;8.690;2023-03-01T13:19:26;0.80;;;0.80;;
22907;SDS011;11620;50.050;8.690;2023-03-01T13:22:25;0.60;;;0.60;;
22907;SDS011;11620;50.050;8.690;2023-03-01T13:25:18;0.60;;;0.60;;
22907;SDS011;11620;50.050;8.690;2023-03-01T13:34:06;0.70;;;0.70;;
22907;SDS011;11620;50.050;8.690;2023-03-01T13:37:25;0.63;;;0.63;;
22907;SDS011;11620;50.050;8.690;2023-03-01T13:43:26;0.60;;;0.60;;
22907;SDS011;11620;50.050;8.690;2023-03-01T13:46:18;0.60;;;0.60;;
22907;SDS011;11620;50.050;8.690;2023-03-01T13:49:09;0.70;;;0.70;;
22907;SDS011;11620;50.050;8.690;2023-03-01T13:51:59;0.60;;;0.60;;
22907;SDS011;11620;50.050;8.690;2023-03-01T13:54:48;0.50;;;0.50;;
22907;SDS011;11620;50.050;8.690;2023-03-01T13:57:34;0.57;;;0.57;;
22907;SDS011;11620;50.050;8.690;2023-03-01T14:00:26;0.70;;;0.70;;
22907;SDS011;11620;50.050;8.690;2023-03-01T14:03:19;0.60;;;0.60;;
22907;SDS011;11620;50.050;8.690;2023-03-01T14:06:07;0.70;;;0.70;;
22907;SDS011;11620;50.050;8.690;2023-03-01T14:18:10;0.60;;;0.60;;
22907;SDS011;11620;50.050;8.690;2023-03-01T14:21:07;0.68;;;0.68;;
22907;SDS011;11620;50.050;8.690;2023-03-01T14:23:54;0.60;;;0.60;;
22907;SDS011;11620;50.050;8.690;2023-03-01T14:26:40;0.70;;;0.70;;
22907;SDS011;11620;50.050;8.690;2023-03-01T14:29:33;0.60;;;0.60;;
22907;SDS011;11620;50.050;8.690;2023-03-01T14:32:22;0.70;;;0.70;;
22907;SDS011;11620;50.050;8.690;2023-03-01T14:35:19;0.68;;;0.68;;
22907;SDS011;11620;50.050;8.690;2023-03-01T14:38:19;0.70;;;0.70;;
22907;SDS011;11620;50.050;8.690;2023-03-01T14:41:15;0.80;;;0.80;;
22907;SDS011;11620;50.050;8.690;2023-03-01T14:44:12;0.60;;;0.60;;
22907;SDS011;11620;50.050;8.690;2023-03-01T14:47:12;0.70;;;0.70;;
22907;SDS011;11620;50.050;8.690;2023-03-01T14:50:19;0.60;;;0.60;;
22907;SDS011;11620;50.050;8.690;2023-03-01T14:53:21;0.60;;;0.60;;
22907;SDS011;11620;50.050;8.690;2023-03-01T14:56:13;0.70;;;0.70;;
22907;SDS011;11620;50.050;8.690;2023-03-01T14:59:03;0.60;;;0.60;;
22907;SDS011;11620;50.050;8.690;2023-03-01T15:01:49;0.57;;;0.57;;
22907;SDS011;11620;50.050;8.690;2023-03-01T15:04:38;0.70;;;0.70;;
22907;SDS011;11620;50.050;8.690;2023-03-01T15:07:31;0.70;;;0.70;;
22907;SDS011;11620;50.050;8.690;2023-03-01T15:10:25;0.67;;;0.67;;
22907;SDS011;11620;50.050;8.690;2023-03-01T15:13:14;0.68;;;0.68;;
22907;SDS011;11620;50.050;8.690;2023-03-01T15:16:11;0.70;;;0.70;;
22907;SDS011;11620;50.050;8.690;2023-03-01T15:19:03;0.60;;;0.60;;
22907;SDS011;11620;50.050;8.690;2023-03-01T15:21:51;0.60;;;0.60;;
22907;SDS011;11620;50.050;8.690;2023-03-01T15:24:37;0.53;;;0.53;;
22907;SDS011;11620;50.050;8.690;2023-03-01T15:27:24;0.70;;;0.70;;
22907;SDS011;11620;50.050;8.690;2023-03-01T15:30:22;0.60;;;0.60;;
22907;SDS011;11620;50.050;8.690;2023-03-01T15:48:04;0.60;;;0.60;;
22907;SDS011;11620;50.050;8.690;2023-03-01T15:51:00;0.60;;;0.60;;
22907;SDS011;11620;50.050;8.690;2023-03-01T15:53:51;0.60;;;0.60;;
22907;SDS011;11620;50.050;8.690;2023-03-01T15:56:38;0.60;;;0.60;;
22907;SDS011;11620;50.050;8.690;2023-03-01T15:59:24;0.63;;;0.63;;
22907;SDS011;11620;50.050;8.690;2023-03-01T16:02:11;0.60;;;0.60;;
22907;SDS011;11620;50.050;8.690;2023-03-01T16:04:58;0.70;;;0.70;;
22907;SDS011;11620;50.050;8.690;2023-03-01T16:07:45;0.67;;;0.67;;
22907;SDS011;11620;50.050;8.690;2023-03-01T16:10:31;0.70;;;0.70;;
22907;SDS011;11620;50.050;8.690;2023-03-01T16:13:18;0.50;;;0.50;;
22907;SDS011;11620;50.050;8.690;2023-03-01T16:16:05;0.63;;;0.63;;
22907;SDS011;11620;50.050;8.690;2023-03-01T16:18:51;0.70;;;0.70;;
22907;SDS011;11620;50.050;8.690;2023-03-01T16:21:38;0.70;;;0.70;;
22907;SDS011;11620;50.050;8.690;2023-03-01T16:24:24;0.80;;;0.80;;
22907;SDS011;11620;50.050;8.690;2023-03-01T16:27:11;0.60;;;0.60;;
22907;SDS011;11620;50.050;8.690;2023-03-01T16:29:58;0.70;;;0.70;;
22907;SDS011;11620;50.050;8.690;2023-03-01T16:32:44;0.60;;;0.60;;
22907;SDS011;11620;50.050;8.690;2023-03-01T16:35:32;0.80;;;0.80;;
22907;SDS011;11620;50.050;8.690;2023-03-01T16:38:19;0.70;;;0.70;;
22907;SDS011;11620;50.050;8.690;2023-03-01T16:40:49;0.63;;;0.63;;
22907;SDS011;11620;50.050;8.690;2023-03-01T16:43:35;0.70;;;0.70;;
22907;SDS011;11620;50.050;8.690;2023-03-01T16:46:22;0.70;;;0.70;;
22907;SDS011;11620;50.050;8.690;2023-03-01T16:49:10;0.60;;;0.60;;
22907;SDS011;11620;50.050;8.690;2023-03-01T16:51:57;0.60;;;0.60;;
22907;SDS011;11620;50.050;8.690;2023-03-01T16:54:44;0.70;;;0.70;;
22907;SDS011;11620;50.050;8.690;2023-03-01T16:57:33;0.80;;;0.80;;
22907;SDS011;11620;50.050;8.690;2023-03-01T17:00:20;0.70;;;0.70;;
22907;SDS011;11620;50.050;8.690;2023-03-01T17:03:06;0.70;;;0.70;;
22907;SDS011;11620;50.050;8.690;2023-03-01T17:05:52;0.70;;;0.70;;
22907;SDS011;11620;50.050;8.690;2023-03-01T17:08:39;0.80;;;0.80;;
22907;SDS011;11620;50.050;8.690;2023-03-01T17:11:25;0.70;;;0.70;;
22907;SDS011;11620;50.050;8.690;2023-03-01T17:14:13;0.67;;;0.67;;
22907;SDS011;11620;50.050;8.690;2023-03-01T17:17:01;0.80;;;0.80;;
22907;SDS011;11620;50.050;8.690;2023-03-01T17:19:48;0.70;;;0.70;;
22907;SDS011;11620;50.050;8.690;2023-03-01T17:22:34;0.70;;;0.70;;
22907;SDS011;11620;50.050;8.690;2023-03-01T17:25:20;0.70;;;0.70;;
22907;SDS011;11620;50.050;8.690;2023-03-01T17:28:07;0.70;;;0.70;;
22907;SDS011;11620;50.050;8.690;2023-03-01T17:30:54;0.70;;;0.70;;
22907;SDS011;11620;50.050;8.690;2023-03-01T17:33:40;0.80;;;0.80;;
22907;SDS011;11620;50.050;8.690;2023-03-01T17:36:27;0.70;;;0.70;;
22907;SDS011;11620;50.050;8.690;2023-03-01T17:39:13;0.80;;;0.80;;
22907;SDS011;11620;50.050;8.690;2023-03-01T17:41:59;0.70;;;0.70;;
22907;SDS011;11620;50.050;8.690;2023-03-01T17:44:46;0.70;;;0.70;;
22907;SDS011;11620;50.050;8.690;2023-03-01T17:47:32;0.77;;;0.77;;
22907;SDS011;11620;50.050;8.690;2023-03-01T17:50:19;0.73;;;0.73;;
22907;SDS011;11620;50.050;8.690;2023-03-01T17:53:08;0.60;;;0.60;;
22907;SDS011;11620;50.050;8.690;2023-03-01T17:55:58;0.70;;;0.70;;
22907;SDS011;11620;50.050;8.690;2023-03-01T17:58:46;0.83;;;0.83;;
22907;SDS011;11620;50.050;8.690;2023-03-01T18:01:32;0.80;;;0.80;;
22907;SDS011;11620;50.050;8.690;2023-03-01T18:04:20;0.73;;;0.73;;
22907;SDS011;11620;50.050;8.690;2023-03-01T18:07:07;0.80;;;0.80;;
22907;SDS011;11620;50.050;8.690;2023-03-01T18:09:53;0.70;;;0.70;;
22907;SDS011;11620;50.050;8.690;2023-03-01T18:12:40;0.60;;;0.60;;
22907;SDS011;11620;50.050;8.690;2023-03-01T18:15:27;0.63;;;0.63;;
22907;SDS011;11620;50.050;8.690;2023-03-01T18:18:13;0.70;;;0.70;;
22907;SDS011;11620;50.050;8.690;2023-03-01T18:21:00;0.63;;;0.63;;
22907;SDS011;11620;50.050;8.690;2023-03-01T18:23:47;0.60;;;0.60;;
22907;SDS011;11620;50.050;8.690;2023-03-01T18:26:34;0.60;;;0.60;;
22907;SDS011;11620;50.050;8.690;2023-03-01T18:29:20;0.80;;;0.80;;
22907;SDS011;11620;50.050;8.690;2023-03-01T18:32:07;0.70;;;0.70;;
22907;SDS011;11620;50.050;8.690;2023-03-01T18:34:53;0.70;;;0.70;;
22907;SDS011;11620;50.050;8.690;2023-03-01T18:37:39;0.80;;;0.80;;
22907;SDS011;11620;50.050;8.690;2023-03-01T18:40:27;0.70;;;0.70;;
22907;SDS011;11620;50.050;8.690;2023-03-01T18:43:14;0.80;;;0.80;;
22907;SDS011;11620;50.050;8.690;2023-03-01T18:46:00;0.60;;;0.60;;
22907;SDS011;11620;50.050;8.690;2023-03-01T18:48:50;0.70;;;0.70;;
22907;SDS011;11620;50.050;8.690;2023-03-01T18:51:38;0.80;;;0.80;;
22907;SDS011;11620;50.050;8.690;2023-03-01T18:54:25;0.70;;;0.70;;
22907;SDS011;11620;50.050;8.690;2023-03-01T18:57:11;0.80;;;0.80;;
22907;SDS011;11620;50.050;8.690;2023-03-01T18:59:57;0.80;;;0.80;;
22907;SDS011;11620;50.050;8.690;2023-03-01T19:02:44;0.80;;;0.80;;
22907;SDS011;11620;50.050;8.690;2023-03-01T19:05:30;0.80;;;0.80;;
22907;SDS011;11620;50.050;8.690;2023-03-01T19:08:17;0.80;;;0.80;;
22907;SDS011;11620;50.050;8.690;2023-03-01T19:11:04;0.70;;;0.70;;